sensor_id;sensor_type;location;lat;lon;timestamp;temperature;humidity
9776;DHT22;4927;52.472;13.108;2022-10-13T00:00:49;4.30;99.90
9776;DHT22;4927;52.472;13.108;2022-10-13T00:05:56;4.30;99.90
9776;DHT22;4927;52.472;13.108;2022-10-13T00:11:07;4.30;99.90
9776;DHT22;4927;52.472;13.108;2022-10-13T00:16:10;4.20;99.90
9776;DHT22;4927;52.472;13.108;2022-10-13T00:21:17;4.20;99.90
9776;DHT22;4927;52.472;13.108;2022-10-13T00:26:21;4.20;99.90
9776;DHT22;4927;52.472;13.108;2022-10-13T00:31:27;4.20;99.90
9776;DHT22;4927;52.472;13.108;2022-10-13T00:36:34;4.20;99.90
9776;DHT22;4927;52.472;13.108;2022-10-13T00:41:40;4.20;99.90
9776;DHT22;4927;52.472;13.108;2022-10-13T00:46:47;4.20;99.90
9776;DHT22;4927;52.472;13.108;2022-10-13T00:51:53;4.20;99.90
9776;DHT22;4927;52.472;13.108;2022-10-13T00:56:59;4.20;99.90
9776;DHT22;4927;52.472;13.108;2022-10-13T01:02:06;4.40;99.90
9776;DHT22;4927;52.472;13.108;2022-10-13T01:07:14;4.40;99.90
9776;DHT22;4927;52.472;13.108;2022-10-13T01:12:39;4.40;99.90
9776;DHT22;4927;52.472;13.108;2022-10-13T01:17:51;4.40;99.90
9776;DHT22;4927;52.472;13.108;2022-10-13T01:28:32;4.40;99.90
9776;DHT22;4927;52.472;13.108;2022-10-13T01:33:39;4.70;99.90
9776;DHT22;4927;52.472;13.108;2022-10-13T01:38:47;4.70;99.90
9776;DHT22;4927;52.472;13.108;2022-10-13T01:44:01;4.70;99.90
9776;DHT22;4927;52.472;13.108;2022-10-13T01:49:08;4.60;99.90
9776;DHT22;4927;52.472;13.108;2022-10-13T01:54:12;4.50;99.90
9776;DHT22;4927;52.472;13.108;2022-10-13T01:59:19;4.50;99.90
9776;DHT22;4927;52.472;13.108;2022-10-13T02:09:56;4.50;99.90
9776;DHT22;4927;52.472;13.108;2022-10-13T02:15:01;4.40;99.90
9776;DHT22;4927;52.472;13.108;2022-10-13T02:20:08;4.40;99.90
9776;DHT22;4927;52.472;13.108;2022-10-13T02:25:14;4.40;99.90
9776;DHT22;4927;52.472;13.108;2022-10-13T02:30:22;4.40;99.90
9776;DHT22;4927;52.472;13.108;2022-10-13T02:35:27;4.50;99.90
9776;DHT22;4927;52.472;13.108;2022-10-13T02:40:33;4.50;99.90
9776;DHT22;4927;52.472;13.108;2022-10-13T02:45:40;4.50;99.90
9776;DHT22;4927;52.472;13.108;2022-10-13T02:50:45;4.50;99.90
9776;DHT22;4927;52.472;13.108;2022-10-13T02:55:51;4.50;99.90
9776;DHT22;4927;52.472;13.108;2022-10-13T03:01:05;4.50;99.90
9776;DHT22;4927;52.472;13.108;2022-10-13T03:06:10;4.60;99.90
9776;DHT22;4927;52.472;13.108;2022-10-13T03:11:17;4.80;99.90
9776;DHT22;4927;52.472;13.108;2022-10-13T03:16:23;4.80;99.90
9776;DHT22;4927;52.472;13.108;2022-10-13T03:21:30;4.80;99.90
9776;DHT22;4927;52.472;13.108;2022-10-13T03:26:36;4.90;99.90
9776;DHT22;4927;52.472;13.108;2022-10-13T03:31:42;5.00;99.90
9776;DHT22;4927;52.472;13.108;2022-10-13T03:36:48;5.10;99.90
9776;DHT22;4927;52.472;13.108;2022-10-13T03:41:56;5.50;99.90
9776;DHT22;4927;52.472;13.108;2022-10-13T03:47:02;5.50;99.90
9776;DHT22;4927;52.472;13.108;2022-10-13T03:52:06;5.60;99.90
9776;DHT22;4927;52.472;13.108;2022-10-13T03:57:13;5.70;99.90
9776;DHT22;4927;52.472;13.108;2022-10-13T04:02:19;5.70;99.90
9776;DHT22;4927;52.472;13.108;2022-10-13T04:07:26;5.90;99.90
9776;DHT22;4927;52.472;13.108;2022-10-13T04:12:32;5.90;99.90
9776;DHT22;4927;52.472;13.108;2022-10-13T04:17:39;6.00;99.90
9776;DHT22;4927;52.472;13.108;2022-10-13T04:22:45;6.00;99.90
9776;DHT22;4927;52.472;13.108;2022-10-13T04:27:51;6.10;99.90
9776;DHT22;4927;52.472;13.108;2022-10-13T04:32:58;6.20;99.90
9776;DHT22;4927;52.472;13.108;2022-10-13T04:38:04;6.20;99.90
9776;DHT22;4927;52.472;13.108;2022-10-13T04:43:10;6.30;99.90
9776;DHT22;4927;52.472;13.108;2022-10-13T04:48:17;6.30;99.90
9776;DHT22;4927;52.472;13.108;2022-10-13T04:53:23;6.30;99.90
9776;DHT22;4927;52.472;13.108;2022-10-13T04:58:27;6.40;99.90
9776;DHT22;4927;52.472;13.108;2022-10-13T05:03:33;6.40;99.90
9776;DHT22;4927;52.472;13.108;2022-10-13T05:08:41;6.50;99.90
9776;DHT22;4927;52.472;13.108;2022-10-13T05:13:47;6.50;99.90
9776;DHT22;4927;52.472;13.108;2022-10-13T05:18:54;6.50;99.90
9776;DHT22;4927;52.472;13.108;2022-10-13T05:24:01;6.60;99.90
9776;DHT22;4927;52.472;13.108;2022-10-13T05:29:08;6.60;99.90
9776;DHT22;4927;52.472;13.108;2022-10-13T05:34:14;6.60;99.90
9776;DHT22;4927;52.472;13.108;2022-10-13T05:39:20;6.60;99.90
9776;DHT22;4927;52.472;13.108;2022-10-13T05:44:26;6.60;99.90
9776;DHT22;4927;52.472;13.108;2022-10-13T05:49:33;6.60;99.90
9776;DHT22;4927;52.472;13.108;2022-10-13T05:54:40;6.60;99.90
9776;DHT22;4927;52.472;13.108;2022-10-13T05:59:50;6.50;99.90
9776;DHT22;4927;52.472;13.108;2022-10-13T06:04:54;6.50;99.90
9776;DHT22;4927;52.472;13.108;2022-10-13T06:10:00;6.50;99.90
9776;DHT22;4927;52.472;13.108;2022-10-13T06:15:08;6.60;99.90
9776;DHT22;4927;52.472;13.108;2022-10-13T06:20:14;6.60;99.90
9776;DHT22;4927;52.472;13.108;2022-10-13T06:25:22;6.80;99.90
9776;DHT22;4927;52.472;13.108;2022-10-13T06:30:26;6.80;99.90
9776;DHT22;4927;52.472;13.108;2022-10-13T06:35:33;6.80;99.90
9776;DHT22;4927;52.472;13.108;2022-10-13T06:40:40;7.00;99.90
9776;DHT22;4927;52.472;13.108;2022-10-13T06:45:46;6.90;99.90
9776;DHT22;4927;52.472;13.108;2022-10-13T06:50:52;7.00;99.90
9776;DHT22;4927;52.472;13.108;2022-10-13T06:55:59;7.10;99.90
9776;DHT22;4927;52.472;13.108;2022-10-13T07:01:05;7.20;99.90
9776;DHT22;4927;52.472;13.108;2022-10-13T07:06:11;7.30;99.90
9776;DHT22;4927;52.472;13.108;2022-10-13T07:11:17;7.30;99.90
9776;DHT22;4927;52.472;13.108;2022-10-13T07:16:24;7.30;99.90
9776;DHT22;4927;52.472;13.108;2022-10-13T07:21:31;7.70;99.90
9776;DHT22;4927;52.472;13.108;2022-10-13T07:26:37;7.70;99.90
9776;DHT22;4927;52.472;13.108;2022-10-13T07:31:44;7.90;99.90
9776;DHT22;4927;52.472;13.108;2022-10-13T07:36:50;8.30;99.90
9776;DHT22;4927;52.472;13.108;2022-10-13T07:41:57;8.60;99.90
9776;DHT22;4927;52.472;13.108;2022-10-13T07:47:04;8.60;99.90
9776;DHT22;4927;52.472;13.108;2022-10-13T07:52:10;8.90;99.90
9776;DHT22;4927;52.472;13.108;2022-10-13T07:57:16;9.30;99.90
9776;DHT22;4927;52.472;13.108;2022-10-13T08:02:22;9.40;99.90
9776;DHT22;4927;52.472;13.108;2022-10-13T08:07:29;9.60;99.90
9776;DHT22;4927;52.472;13.108;2022-10-13T08:12:35;9.80;99.90
9776;DHT22;4927;52.472;13.108;2022-10-13T08:17:41;10.10;99.90
9776;DHT22;4927;52.472;13.108;2022-10-13T08:22:48;10.40;99.90
9776;DHT22;4927;52.472;13.108;2022-10-13T08:27:54;10.60;99.90
9776;DHT22;4927;52.472;13.108;2022-10-13T08:33:00;10.70;99.90
9776;DHT22;4927;52.472;13.108;2022-10-13T08:38:07;11.00;99.90
9776;DHT22;4927;52.472;13.108;2022-10-13T08:43:15;11.10;99.90
9776;DHT22;4927;52.472;13.108;2022-10-13T08:48:22;11.20;99.90
9776;DHT22;4927;52.472;13.108;2022-10-13T08:53:32;11.40;99.90
9776;DHT22;4927;52.472;13.108;2022-10-13T08:58:37;11.50;99.90
9776;DHT22;4927;52.472;13.108;2022-10-13T09:09:05;11.90;99.90
9776;DHT22;4927;52.472;13.108;2022-10-13T09:14:10;12.00;99.90
9776;DHT22;4927;52.472;13.108;2022-10-13T09:19:21;12.20;99.90
9776;DHT22;4927;52.472;13.108;2022-10-13T09:24:25;12.30;99.90
9776;DHT22;4927;52.472;13.108;2022-10-13T09:29:32;12.50;99.90
9776;DHT22;4927;52.472;13.108;2022-10-13T09:34:39;12.70;99.90
9776;DHT22;4927;52.472;13.108;2022-10-13T09:39:46;12.70;99.90
9776;DHT22;4927;52.472;13.108;2022-10-13T09:44:57;12.90;99.90
9776;DHT22;4927;52.472;13.108;2022-10-13T09:50:15;13.20;99.90
9776;DHT22;4927;52.472;13.108;2022-10-13T09:55:31;13.40;99.90
9776;DHT22;4927;52.472;13.108;2022-10-13T10:00:41;13.70;99.90
9776;DHT22;4927;52.472;13.108;2022-10-13T10:05:55;13.80;99.90
9776;DHT22;4927;52.472;13.108;2022-10-13T10:11:00;14.00;99.90
9776;DHT22;4927;52.472;13.108;2022-10-13T10:16:08;14.10;99.90
9776;DHT22;4927;52.472;13.108;2022-10-13T10:21:33;14.20;99.90
9776;DHT22;4927;52.472;13.108;2022-10-13T10:26:56;14.40;99.90
9776;DHT22;4927;52.472;13.108;2022-10-13T10:32:26;14.60;99.90
9776;DHT22;4927;52.472;13.108;2022-10-13T10:42:59;14.90;99.90
9776;DHT22;4927;52.472;13.108;2022-10-13T10:48:11;15.20;99.90
9776;DHT22;4927;52.472;13.108;2022-10-13T10:53:18;15.50;99.90
9776;DHT22;4927;52.472;13.108;2022-10-13T10:58:41;15.70;99.90
9776;DHT22;4927;52.472;13.108;2022-10-13T11:15:07;16.10;99.90
9776;DHT22;4927;52.472;13.108;2022-10-13T11:25:41;15.90;99.90
9776;DHT22;4927;52.472;13.108;2022-10-13T11:30:49;16.10;99.90
9776;DHT22;4927;52.472;13.108;2022-10-13T11:35:54;16.30;99.90
9776;DHT22;4927;52.472;13.108;2022-10-13T11:41:10;16.40;99.90
9776;DHT22;4927;52.472;13.108;2022-10-13T11:56:51;16.60;99.90
9776;DHT22;4927;52.472;13.108;2022-10-13T12:01:56;16.70;99.90
9776;DHT22;4927;52.472;13.108;2022-10-13T12:07:02;16.80;99.90
9776;DHT22;4927;52.472;13.108;2022-10-13T12:12:11;16.90;99.90
9776;DHT22;4927;52.472;13.108;2022-10-13T12:17:33;17.00;99.90
9776;DHT22;4927;52.472;13.108;2022-10-13T12:22:46;17.20;99.90
9776;DHT22;4927;52.472;13.108;2022-10-13T12:27:55;17.30;99.90
9776;DHT22;4927;52.472;13.108;2022-10-13T12:32:58;17.50;99.90
9776;DHT22;4927;52.472;13.108;2022-10-13T12:38:04;17.50;99.90
9776;DHT22;4927;52.472;13.108;2022-10-13T12:43:15;17.40;99.90
9776;DHT22;4927;52.472;13.108;2022-10-13T12:48:30;17.30;99.90
9776;DHT22;4927;52.472;13.108;2022-10-13T12:53:35;17.30;99.90
9776;DHT22;4927;52.472;13.108;2022-10-13T12:58:41;17.30;99.90
9776;DHT22;4927;52.472;13.108;2022-10-13T13:03:52;17.20;99.90
9776;DHT22;4927;52.472;13.108;2022-10-13T13:09:06;17.20;99.90
9776;DHT22;4927;52.472;13.108;2022-10-13T13:19:36;17.00;99.90
9776;DHT22;4927;52.472;13.108;2022-10-13T13:24:42;16.90;99.90
9776;DHT22;4927;52.472;13.108;2022-10-13T13:29:48;16.80;99.90
9776;DHT22;4927;52.472;13.108;2022-10-13T13:34:58;16.90;99.90
9776;DHT22;4927;52.472;13.108;2022-10-13T13:40:06;17.20;99.90
9776;DHT22;4927;52.472;13.108;2022-10-13T13:45:13;17.20;99.90
9776;DHT22;4927;52.472;13.108;2022-10-13T13:50:25;17.10;99.90
9776;DHT22;4927;52.472;13.108;2022-10-13T13:55:31;16.90;99.90
9776;DHT22;4927;52.472;13.108;2022-10-13T14:00:38;17.20;99.90
9776;DHT22;4927;52.472;13.108;2022-10-13T14:05:44;17.20;99.90
9776;DHT22;4927;52.472;13.108;2022-10-13T14:10:50;17.10;99.90
9776;DHT22;4927;52.472;13.108;2022-10-13T14:15:58;17.00;99.90
9776;DHT22;4927;52.472;13.108;2022-10-13T14:21:04;16.80;99.90
9776;DHT22;4927;52.472;13.108;2022-10-13T14:26:10;16.70;99.90
9776;DHT22;4927;52.472;13.108;2022-10-13T14:31:20;16.70;99.90
9776;DHT22;4927;52.472;13.108;2022-10-13T14:36:27;16.50;99.90
9776;DHT22;4927;52.472;13.108;2022-10-13T14:41:37;16.50;99.90
9776;DHT22;4927;52.472;13.108;2022-10-13T14:46:43;16.30;99.90
9776;DHT22;4927;52.472;13.108;2022-10-13T14:51:50;16.20;99.90
9776;DHT22;4927;52.472;13.108;2022-10-13T14:56:57;15.90;99.90
9776;DHT22;4927;52.472;13.108;2022-10-13T15:02:03;15.90;99.90
9776;DHT22;4927;52.472;13.108;2022-10-13T15:07:09;15.70;99.90
9776;DHT22;4927;52.472;13.108;2022-10-13T15:12:13;15.60;99.90
9776;DHT22;4927;52.472;13.108;2022-10-13T15:17:20;15.40;99.90
9776;DHT22;4927;52.472;13.108;2022-10-13T15:22:26;15.20;99.90
9776;DHT22;4927;52.472;13.108;2022-10-13T15:27:32;14.90;99.90
9776;DHT22;4927;52.472;13.108;2022-10-13T15:32:39;14.80;99.90
9776;DHT22;4927;52.472;13.108;2022-10-13T15:37:43;14.70;99.90
9776;DHT22;4927;52.472;13.108;2022-10-13T15:42:51;14.60;99.90
9776;DHT22;4927;52.472;13.108;2022-10-13T15:47:56;14.50;99.90
9776;DHT22;4927;52.472;13.108;2022-10-13T15:53:02;14.40;99.90
9776;DHT22;4927;52.472;13.108;2022-10-13T15:58:08;14.20;99.90
9776;DHT22;4927;52.472;13.108;2022-10-13T16:03:13;14.00;99.90
9776;DHT22;4927;52.472;13.108;2022-10-13T16:08:19;13.90;99.90
9776;DHT22;4927;52.472;13.108;2022-10-13T16:13:25;13.80;99.90
9776;DHT22;4927;52.472;13.108;2022-10-13T16:18:33;13.60;99.90
9776;DHT22;4927;52.472;13.108;2022-10-13T16:23:36;13.50;99.90
9776;DHT22;4927;52.472;13.108;2022-10-13T16:28:40;13.30;99.90
9776;DHT22;4927;52.472;13.108;2022-10-13T16:33:46;13.10;99.90
9776;DHT22;4927;52.472;13.108;2022-10-13T16:38:53;12.80;99.90
9776;DHT22;4927;52.472;13.108;2022-10-13T16:44:00;12.80;99.90
9776;DHT22;4927;52.472;13.108;2022-10-13T16:49:04;12.60;99.90
9776;DHT22;4927;52.472;13.108;2022-10-13T16:54:11;12.40;99.90
9776;DHT22;4927;52.472;13.108;2022-10-13T16:59:15;12.40;99.90
9776;DHT22;4927;52.472;13.108;2022-10-13T17:04:20;12.30;99.90
9776;DHT22;4927;52.472;13.108;2022-10-13T17:09:26;12.10;99.90
9776;DHT22;4927;52.472;13.108;2022-10-13T17:14:33;12.10;99.90
9776;DHT22;4927;52.472;13.108;2022-10-13T17:19:39;12.10;99.90
9776;DHT22;4927;52.472;13.108;2022-10-13T17:24:46;12.00;99.90
9776;DHT22;4927;52.472;13.108;2022-10-13T17:29:52;11.80;99.90
9776;DHT22;4927;52.472;13.108;2022-10-13T17:34:58;11.60;99.90
9776;DHT22;4927;52.472;13.108;2022-10-13T17:40:05;11.50;99.90
9776;DHT22;4927;52.472;13.108;2022-10-13T17:45:12;11.30;99.90
9776;DHT22;4927;52.472;13.108;2022-10-13T17:50:18;11.10;99.90
9776;DHT22;4927;52.472;13.108;2022-10-13T17:55:24;11.00;99.90
9776;DHT22;4927;52.472;13.108;2022-10-13T18:00:31;10.90;99.90
9776;DHT22;4927;52.472;13.108;2022-10-13T18:05:40;10.90;99.90
9776;DHT22;4927;52.472;13.108;2022-10-13T18:10:44;10.80;99.90
9776;DHT22;4927;52.472;13.108;2022-10-13T18:15:52;10.60;99.90
9776;DHT22;4927;52.472;13.108;2022-10-13T18:21:00;10.70;99.90
9776;DHT22;4927;52.472;13.108;2022-10-13T18:26:08;10.70;99.90
9776;DHT22;4927;52.472;13.108;2022-10-13T18:31:17;10.60;99.90
9776;DHT22;4927;52.472;13.108;2022-10-13T18:36:26;10.40;99.90
9776;DHT22;4927;52.472;13.108;2022-10-13T18:41:31;10.40;99.90
9776;DHT22;4927;52.472;13.108;2022-10-13T18:46:38;10.20;99.90
9776;DHT22;4927;52.472;13.108;2022-10-13T18:51:44;10.20;99.90
9776;DHT22;4927;52.472;13.108;2022-10-13T18:56:50;10.20;99.90
9776;DHT22;4927;52.472;13.108;2022-10-13T19:01:56;10.10;99.90
9776;DHT22;4927;52.472;13.108;2022-10-13T19:07:03;10.00;99.90
9776;DHT22;4927;52.472;13.108;2022-10-13T19:12:09;9.90;99.90
9776;DHT22;4927;52.472;13.108;2022-10-13T19:17:13;9.80;99.90
9776;DHT22;4927;52.472;13.108;2022-10-13T19:22:18;9.70;99.90
9776;DHT22;4927;52.472;13.108;2022-10-13T19:27:24;9.60;99.90
9776;DHT22;4927;52.472;13.108;2022-10-13T19:32:32;9.40;99.90
9776;DHT22;4927;52.472;13.108;2022-10-13T19:37:39;9.20;99.90
9776;DHT22;4927;52.472;13.108;2022-10-13T19:42:45;9.20;99.90
9776;DHT22;4927;52.472;13.108;2022-10-13T19:47:52;9.10;99.90
9776;DHT22;4927;52.472;13.108;2022-10-13T19:52:58;9.00;99.90
9776;DHT22;4927;52.472;13.108;2022-10-13T19:58:04;8.90;99.90
9776;DHT22;4927;52.472;13.108;2022-10-13T20:03:12;8.80;99.90
9776;DHT22;4927;52.472;13.108;2022-10-13T20:08:17;8.70;99.90
9776;DHT22;4927;52.472;13.108;2022-10-13T20:13:24;8.50;99.90
9776;DHT22;4927;52.472;13.108;2022-10-13T20:18:30;8.50;99.90
9776;DHT22;4927;52.472;13.108;2022-10-13T20:23:36;8.40;99.90
9776;DHT22;4927;52.472;13.108;2022-10-13T20:28:43;8.30;99.90
9776;DHT22;4927;52.472;13.108;2022-10-13T20:33:53;8.20;99.90
9776;DHT22;4927;52.472;13.108;2022-10-13T20:38:59;8.20;99.90
9776;DHT22;4927;52.472;13.108;2022-10-13T20:44:05;8.10;99.90
9776;DHT22;4927;52.472;13.108;2022-10-13T20:49:12;8.10;99.90
9776;DHT22;4927;52.472;13.108;2022-10-13T20:54:18;8.10;99.90
9776;DHT22;4927;52.472;13.108;2022-10-13T20:59:24;8.10;99.90
9776;DHT22;4927;52.472;13.108;2022-10-13T21:04:31;8.00;99.90
9776;DHT22;4927;52.472;13.108;2022-10-13T21:09:37;7.90;99.90
9776;DHT22;4927;52.472;13.108;2022-10-13T21:14:42;7.90;99.90
9776;DHT22;4927;52.472;13.108;2022-10-13T21:19:48;7.90;99.90
9776;DHT22;4927;52.472;13.108;2022-10-13T21:24:54;7.80;99.90
9776;DHT22;4927;52.472;13.108;2022-10-13T21:30:01;7.80;99.90
9776;DHT22;4927;52.472;13.108;2022-10-13T21:35:08;7.70;99.90
9776;DHT22;4927;52.472;13.108;2022-10-13T21:40:14;7.90;99.90
9776;DHT22;4927;52.472;13.108;2022-10-13T21:45:20;7.70;99.90
9776;DHT22;4927;52.472;13.108;2022-10-13T21:50:31;7.60;99.90
9776;DHT22;4927;52.472;13.108;2022-10-13T21:55:37;7.60;99.90
9776;DHT22;4927;52.472;13.108;2022-10-13T22:00:43;7.60;99.90
9776;DHT22;4927;52.472;13.108;2022-10-13T22:05:49;7.50;99.90
9776;DHT22;4927;52.472;13.108;2022-10-13T22:10:56;7.50;99.90
9776;DHT22;4927;52.472;13.108;2022-10-13T22:16:04;7.40;99.90
9776;DHT22;4927;52.472;13.108;2022-10-13T22:21:11;7.40;99.90
9776;DHT22;4927;52.472;13.108;2022-10-13T22:26:14;7.40;99.90
9776;DHT22;4927;52.472;13.108;2022-10-13T22:31:18;7.20;99.90
9776;DHT22;4927;52.472;13.108;2022-10-13T22:36:24;7.20;99.90
9776;DHT22;4927;52.472;13.108;2022-10-13T22:41:31;7.20;99.90
9776;DHT22;4927;52.472;13.108;2022-10-13T22:46:37;7.20;99.90
9776;DHT22;4927;52.472;13.108;2022-10-13T22:51:43;7.20;99.90
9776;DHT22;4927;52.472;13.108;2022-10-13T22:56:48;7.10;99.90
9776;DHT22;4927;52.472;13.108;2022-10-13T23:01:54;7.10;99.90
9776;DHT22;4927;52.472;13.108;2022-10-13T23:07:04;7.00;99.90
9776;DHT22;4927;52.472;13.108;2022-10-13T23:12:10;6.90;99.90
9776;DHT22;4927;52.472;13.108;2022-10-13T23:17:16;7.10;99.90
9776;DHT22;4927;52.472;13.108;2022-10-13T23:22:23;6.80;99.90
9776;DHT22;4927;52.472;13.108;2022-10-13T23:27:30;6.80;99.90
9776;DHT22;4927;52.472;13.108;2022-10-13T23:32:37;6.70;99.90
9776;DHT22;4927;52.472;13.108;2022-10-13T23:37:43;6.70;99.90
9776;DHT22;4927;52.472;13.108;2022-10-13T23:42:53;6.60;99.90
9776;DHT22;4927;52.472;13.108;2022-10-13T23:48:04;6.60;99.90
9776;DHT22;4927;52.472;13.108;2022-10-13T23:53:15;6.60;99.90
9776;DHT22;4927;52.472;13.108;2022-10-13T23:58:22;6.50;99.90
